Terminal Aerodrome Forecast
Issued by NWS

Home | Current Version | Previous Version | Text Only | Print | Product List | Glossary On
Versions: 1 2 3 4 5 6 7 8 9 10 11 12 13 14 15 16 17 18
000
FTUS44 KHGX 240903 AAA
TAFSGR
TAF AMD
KSGR 240903Z 2409/2506 12003KT P6SM SKC
      TEMPO 2410/2412 MIFG
     FM241200 10005KT P6SM SCT020
     FM241800 12007KT P6SM VCSH SCT045
     FM250100 13007KT P6SM FEW050 SCT250=

USA.gov is the U.S. government's official web portal to all federal, state and local government web resources and services.